Time,TemperatureF,DewpointF,PressureIn,WindDirection,WindDirectionDegrees,WindSpeedMPH,WindSpeedGustMPH,Humidity,HourlyPrecipIn,Conditions,Clouds,dailyrainin,SolarRadiationWatts/m^2,SoftwareType,DateUTC
2017-07-21 00:04:00,57.0,54.4,30.04,SSW,207,0.0,0.0,91,0.00,,SKC,0.00,0.0,WeatherDisplay:10.37,2017-07-21 07:04:00,
2017-07-21 00:09:00,56.9,54.3,30.04,SSW,207,0.0,0.0,91,0.00,,SKC,0.00,0.0,WeatherDisplay:10.37,2017-07-21 07:09:00,
2017-07-21 00:14:00,56.8,54.2,30.04,SSW,207,0.0,0.0,91,0.00,,SKC,0.00,0.0,WeatherDisplay:10.37,2017-07-21 07:14:00,
2017-07-21 00:19:00,56.8,54.2,30.04,SSW,207,0.0,0.0,91,0.00,,SKC,0.00,0.0,WeatherDisplay:10.37,2017-07-21 07:19:00,
2017-07-21 00:24:00,56.8,54.2,30.04,SSW,207,0.0,0.0,91,0.00,,SKC,0.00,0.0,WeatherDisplay:10.37,2017-07-21 07:24:00,
2017-07-21 00:29:00,56.7,54.1,30.04,SSW,207,0.0,0.0,91,0.00,,SKC,0.00,0.0,WeatherDisplay:10.37,2017-07-21 07:29:00,
2017-07-21 00:34:00,56.7,54.4,30.04,SSW,207,0.0,0.0,92,0.00,,SKC,0.00,0.0,WeatherDisplay:10.37,2017-07-21 07:34:00,
2017-07-21 00:39:00,56.7,54.4,30.04,SSW,207,0.0,0.0,92,0.00,,SKC,0.00,0.0,WeatherDisplay:10.37,2017-07-21 07:39:00,
2017-07-21 00:44:00,56.8,54.5,30.04,SSW,204,3.5,3.5,92,0.00,,SKC,0.00,0.0,WeatherDisplay:10.37,2017-07-21 07:44:00,
2017-07-21 00:49:00,56.7,54.4,30.04,SSW,204,0.0,0.0,92,0.00,,SKC,0.00,0.0,WeatherDisplay:10.37,2017-07-21 07:49:00,
2017-07-21 00:54:00,56.6,54.3,30.03,SSW,204,0.0,0.0,92,0.00,,SKC,0.00,0.0,WeatherDisplay:10.37,2017-07-21 07:54:00,
2017-07-21 00:59:00,56.5,54.2,30.03,SSW,205,0.0,0.0,92,0.00,,SKC,0.00,0.0,WeatherDisplay:10.37,2017-07-21 07:59:00,
2017-07-21 01:04:00,56.4,54.1,30.03,SW,223,0.0,0.0,92,0.00,,SKC,0.00,0.0,WeatherDisplay:10.37,2017-07-21 08:04:00,
2017-07-21 01:09:00,56.4,54.1,30.03,SW,223,0.0,0.0,92,0.00,,SKC,0.00,0.0,WeatherDisplay:10.37,2017-07-21 08:09:00,
2017-07-21 01:14:00,56.3,54.0,30.03,SW,223,0.0,0.0,92,0.00,,SKC,0.00,0.0,WeatherDisplay:10.37,2017-07-21 08:14:00,
2017-07-21 01:19:00,56.0,53.7,30.03,SW,223,0.0,0.0,92,0.00,,SKC,0.00,0.0,WeatherDisplay:10.37,2017-07-21 08:19:00,
2017-07-21 01:24:00,55.9,53.6,30.02,SW,223,3.5,3.5,92,0.00,,SKC,0.00,0.0,WeatherDisplay:10.37,2017-07-21 08:24:00,
2017-07-21 01:29:00,55.7,53.4,30.02,SW,224,0.0,0.0,92,0.00,,SKC,0.00,0.0,WeatherDisplay:10.37,2017-07-21 08:29:00,
2017-07-21 01:34:00,55.6,53.3,30.02,SW,229,0.0,0.0,92,0.00,,SKC,0.00,0.0,WeatherDisplay:10.37,2017-07-21 08:34:00,
2017-07-21 01:39:00,55.4,53.1,30.02,North,355,3.5,3.5,92,0.00,,SKC,0.00,0.0,WeatherDisplay:10.37,2017-07-21 08:39:00,
2017-07-21 01:44:00,55.2,52.9,30.02,North,355,0.0,0.0,92,0.00,,SKC,0.00,0.0,WeatherDisplay:10.37,2017-07-21 08:44:00,
2017-07-21 01:49:00,55.1,52.8,30.02,North,355,0.0,0.0,92,0.00,,SKC,0.00,0.0,WeatherDisplay:10.37,2017-07-21 08:49:00,
2017-07-21 01:54:00,55.0,53.0,30.02,North,355,0.0,0.0,93,0.00,,SKC,0.00,0.0,WeatherDisplay:10.37,2017-07-21 08:54:00,
2017-07-21 01:59:00,55.0,53.0,30.02,North,355,0.0,0.0,93,0.00,,SKC,0.00,0.0,WeatherDisplay:10.37,2017-07-21 08:59:00,
2017-07-21 02:04:00,55.0,53.0,30.02,North,355,0.0,0.0,93,0.00,,SKC,0.00,0.0,WeatherDisplay:10.37,2017-07-21 09:04:00,
2017-07-21 02:09:00,54.9,52.9,30.02,North,355,0.0,0.0,93,0.00,,SKC,0.00,0.0,WeatherDisplay:10.37,2017-07-21 09:09:00,
2017-07-21 02:14:00,54.9,52.9,30.02,North,355,0.0,0.0,93,0.00,,SKC,0.00,0.0,WeatherDisplay:10.37,2017-07-21 09:14:00,
2017-07-21 02:19:00,54.9,52.9,30.02,North,355,0.0,0.0,93,0.00,,SKC,0.00,0.0,WeatherDisplay:10.37,2017-07-21 09:19:00,
2017-07-21 02:24:00,55.0,53.0,30.02,North,355,0.0,0.0,93,0.00,,SKC,0.00,0.0,WeatherDisplay:10.37,2017-07-21 09:24:00,
2017-07-21 02:29:00,55.1,53.1,30.02,North,355,0.0,0.0,93,0.00,,SKC,0.00,0.0,WeatherDisplay:10.37,2017-07-21 09:29:00,
2017-07-21 02:34:00,55.2,53.2,30.02,North,355,1.2,0.0,93,0.00,,SKC,0.00,0.0,WeatherDisplay:10.37,2017-07-21 09:34:00,
2017-07-21 02:39:00,55.4,53.4,30.02,North,355,0.0,0.0,93,0.00,,SKC,0.00,0.0,WeatherDisplay:10.37,2017-07-21 09:39:00,
2017-07-21 02:44:00,55.5,53.5,30.02,North,355,0.0,0.0,93,0.00,,SKC,0.00,0.0,WeatherDisplay:10.37,2017-07-21 09:44:00,
2017-07-21 02:49:00,55.6,53.6,30.02,North,355,0.0,0.0,93,0.00,,SKC,0.00,0.0,WeatherDisplay:10.37,2017-07-21 09:49:00,
2017-07-21 02:54:00,55.6,53.6,30.02,North,355,0.0,0.0,93,0.00,,SKC,0.00,0.0,WeatherDisplay:10.37,2017-07-21 09:54:00,
2017-07-21 02:59:00,55.6,53.6,30.02,North,355,0.0,0.0,93,0.00,,SKC,0.00,0.0,WeatherDisplay:10.37,2017-07-21 09:59:00,
2017-07-21 03:04:00,55.5,53.5,30.02,North,355,0.0,0.0,93,0.00,,SKC,0.00,0.0,WeatherDisplay:10.37,2017-07-21 10:04:00,
2017-07-21 03:09:00,55.5,53.5,30.02,North,355,0.0,0.0,93,0.00,,SKC,0.00,0.0,WeatherDisplay:10.37,2017-07-21 10:09:00,
2017-07-21 03:11:00,55.5,53.5,30.02,North,355,0.0,0.0,93,0.00,,SKC,0.00,0.0,WeatherDisplay:10.37,2017-07-21 10:11:00,
2017-07-21 03:16:00,55.5,53.5,30.02,North,355,0.0,0.0,93,0.00,,SKC,0.00,0.0,WeatherDisplay:10.37,2017-07-21 10:16:00,
2017-07-21 03:21:00,55.4,53.4,30.02,North,355,0.0,0.0,93,0.00,,SKC,0.00,0.0,WeatherDisplay:10.37,2017-07-21 10:21:00,
2017-07-21 03:26:00,55.3,53.3,30.02,North,355,0.0,0.0,93,0.00,,SKC,0.00,0.0,WeatherDisplay:10.37,2017-07-21 10:26:00,
2017-07-21 03:28:00,55.2,53.2,30.02,North,355,0.0,0.0,93,0.00,,SKC,0.00,0.0,WeatherDisplay:10.37,2017-07-21 10:28:00,
2017-07-21 03:33:00,55.1,53.1,30.02,North,355,0.0,0.0,93,0.00,,SKC,0.00,0.0,WeatherDisplay:10.37,2017-07-21 10:33:00,
2017-07-21 03:38:00,55.2,53.2,30.01,North,355,0.0,0.0,93,0.00,,SKC,0.00,0.0,WeatherDisplay:10.37,2017-07-21 10:38:00,
2017-07-21 03:43:00,55.1,53.4,30.02,North,355,0.0,0.0,94,0.00,,SKC,0.00,0.0,WeatherDisplay:10.37,2017-07-21 10:43:00,
2017-07-21 03:48:00,55.1,53.4,30.02,North,355,0.0,0.0,94,0.00,,SKC,0.00,0.0,WeatherDisplay:10.37,2017-07-21 10:48:00,
2017-07-21 03:53:00,55.1,53.4,30.02,North,355,0.0,0.0,94,0.00,,SKC,0.00,0.0,WeatherDisplay:10.37,2017-07-21 10:53:00,
2017-07-21 03:58:00,55.1,53.4,30.02,North,355,0.0,0.0,94,0.00,,SKC,0.00,0.0,WeatherDisplay:10.37,2017-07-21 10:58:00,
2017-07-21 04:03:00,55.0,53.3,30.02,North,355,0.0,0.0,94,0.00,,SKC,0.00,0.0,WeatherDisplay:10.37,2017-07-21 11:03:00,
2017-07-21 04:08:00,55.0,53.3,30.02,North,355,0.0,0.0,94,0.00,,SKC,0.00,0.0,WeatherDisplay:10.37,2017-07-21 11:08:00,
2017-07-21 04:13:00,55.0,53.3,30.02,North,355,0.0,0.0,94,0.00,,SKC,0.00,0.0,WeatherDisplay:10.37,2017-07-21 11:13:00,
2017-07-21 04:18:00,55.0,53.3,30.02,North,355,0.0,0.0,94,0.00,,SKC,0.00,0.0,WeatherDisplay:10.37,2017-07-21 11:18:00,
2017-07-21 04:23:00,55.0,53.3,30.02,North,355,0.0,0.0,94,0.00,,SKC,0.00,0.0,WeatherDisplay:10.37,2017-07-21 11:23:00,
2017-07-21 04:28:00,55.1,53.4,30.02,East,90,3.5,3.5,94,0.00,,SKC,0.00,0.0,WeatherDisplay:10.37,2017-07-21 11:28:00,
2017-07-21 04:33:00,55.1,53.4,30.02,ESE,106,4.6,4.6,94,0.00,,SKC,0.00,0.0,WeatherDisplay:10.37,2017-07-21 11:33:00,
2017-07-21 04:38:00,55.0,53.3,30.02,ESE,112,5.8,5.8,94,0.00,,SKC,0.00,0.0,WeatherDisplay:10.37,2017-07-21 11:38:00,
2017-07-21 04:43:00,54.8,53.1,30.02,ESE,105,5.8,5.8,94,0.00,,SKC,0.00,0.0,WeatherDisplay:10.37,2017-07-21 11:43:00,
2017-07-21 04:48:00,54.6,52.9,30.02,ESE,119,5.8,5.8,94,0.00,,SKC,0.00,0.0,WeatherDisplay:10.37,2017-07-21 11:48:00,
2017-07-21 04:53:00,54.6,52.9,30.02,ESE,115,5.0,5.0,94,0.00,,SKC,0.00,0.0,WeatherDisplay:10.37,2017-07-21 11:53:00,
2017-07-21 04:58:00,54.5,52.8,30.02,ESE,103,4.0,4.0,94,0.00,,SKC,0.00,0.0,WeatherDisplay:10.37,2017-07-21 11:58:00,
2017-07-21 05:03:00,54.3,52.6,30.02,ESE,108,0.0,0.0,94,0.00,,SKC,0.00,0.0,WeatherDisplay:10.37,2017-07-21 12:03:00,
2017-07-21 05:08:00,54.3,52.9,30.02,ESE,108,1.2,0.0,95,0.00,,SKC,0.00,0.0,WeatherDisplay:10.37,2017-07-21 12:08:00,
2017-07-21 05:13:00,54.2,52.5,30.02,ESE,108,0.0,0.0,94,0.00,,SKC,0.00,0.0,WeatherDisplay:10.37,2017-07-21 12:13:00,
2017-07-21 05:18:00,54.2,52.8,30.02,ESE,109,0.0,0.0,95,0.00,,SKC,0.00,0.0,WeatherDisplay:10.37,2017-07-21 12:18:00,
2017-07-21 05:23:00,54.3,52.9,30.02,ESE,112,0.0,0.0,95,0.00,,SKC,0.00,0.0,WeatherDisplay:10.37,2017-07-21 12:23:00,
2017-07-21 05:28:00,54.2,52.8,30.02,ESE,113,1.2,0.0,95,0.00,,SKC,0.00,0.0,WeatherDisplay:10.37,2017-07-21 12:28:00,
2017-07-21 05:33:00,54.2,52.8,30.02,ESE,111,0.0,0.0,95,0.00,,SKC,0.00,0.0,WeatherDisplay:10.37,2017-07-21 12:33:00,
2017-07-21 05:38:00,54.2,52.8,30.02,ESE,112,0.0,0.0,95,0.00,,SKC,0.00,0.0,WeatherDisplay:10.37,2017-07-21 12:38:00,
2017-07-21 05:43:00,54.2,52.8,30.02,ESE,112,0.0,0.0,95,0.00,,SKC,0.00,0.0,WeatherDisplay:10.37,2017-07-21 12:43:00,
2017-07-21 05:48:00,54.2,52.8,30.03,ESE,111,0.0,0.0,95,0.00,,SKC,0.00,0.0,WeatherDisplay:10.37,2017-07-21 12:48:00,
2017-07-21 05:53:00,54.2,52.8,30.03,ESE,107,1.2,0.0,95,0.00,,SKC,0.00,0.0,WeatherDisplay:10.37,2017-07-21 12:53:00,
2017-07-21 05:58:00,54.1,52.7,30.03,ESE,107,1.0,0.0,95,0.00,,SKC,0.00,0.0,WeatherDisplay:10.37,2017-07-21 12:58:00,
2017-07-21 06:03:00,54.0,52.6,30.03,ESE,107,0.0,0.0,95,0.00,CLR,SKC,0.00,0.0,WeatherDisplay:10.37,2017-07-21 13:03:00,
2017-07-21 06:08:00,54.0,52.6,30.03,ESE,107,0.0,0.0,95,0.00,CLR,SKC,0.00,0.0,WeatherDisplay:10.37,2017-07-21 13:08:00,
2017-07-21 06:13:00,53.9,52.5,30.03,ESE,107,0.0,0.0,95,0.00,CLR,SKC,0.00,0.0,WeatherDisplay:10.37,2017-07-21 13:13:00,
2017-07-21 06:18:00,53.9,52.5,30.03,ESE,106,0.0,0.0,95,0.00,CLR,SKC,0.00,0.0,WeatherDisplay:10.37,2017-07-21 13:18:00,
2017-07-21 06:23:00,53.9,52.5,30.03,ESE,107,0.0,0.0,95,0.00,CLR,SKC,0.00,5.0,WeatherDisplay:10.37,2017-07-21 13:23:00,
2017-07-21 06:28:00,54.0,52.6,30.03,ESE,109,0.0,0.0,95,0.00,CLR,SKC,0.00,9.0,WeatherDisplay:10.37,2017-07-21 13:28:00,
2017-07-21 06:33:00,53.9,52.5,30.03,ESE,109,0.0,0.0,95,0.00,CLR,SKC,0.00,11.0,WeatherDisplay:10.37,2017-07-21 13:33:00,
2017-07-21 06:38:00,53.9,52.5,30.03,ESE,109,0.0,0.0,95,0.00,CLR,SKC,0.00,12.0,WeatherDisplay:10.37,2017-07-21 13:38:00,
2017-07-21 06:43:00,54.0,52.6,30.03,ESE,112,0.0,0.0,95,0.00,CLR,SKC,0.00,16.0,WeatherDisplay:10.37,2017-07-21 13:43:00,
2017-07-21 06:48:00,54.0,52.6,30.04,ESE,112,0.0,0.0,95,0.00,CLR,SKC,0.00,18.0,WeatherDisplay:10.37,2017-07-21 13:48:00,
2017-07-21 06:53:00,54.0,52.6,30.04,ESE,112,0.0,0.0,95,0.00,CLR,SKC,0.00,19.0,WeatherDisplay:10.37,2017-07-21 13:53:00,
2017-07-21 06:58:00,54.0,52.6,30.04,ESE,113,0.0,0.0,95,0.00,CLR,SKC,0.00,23.0,WeatherDisplay:10.37,2017-07-21 13:58:00,
2017-07-21 07:03:00,54.0,52.6,30.04,ESE,113,0.0,0.0,95,0.00,CLR,SKC,0.00,26.0,WeatherDisplay:10.37,2017-07-21 14:03:00,
2017-07-21 07:08:00,54.1,52.7,30.04,ESE,113,0.0,0.0,95,0.00,CLR,SKC,0.00,32.0,WeatherDisplay:10.37,2017-07-21 14:08:00,
2017-07-21 07:13:00,54.2,53.1,30.04,ESE,112,0.0,0.2,96,0.00,CLR,SKC,0.00,37.0,WeatherDisplay:10.37,2017-07-21 14:13:00,
2017-07-21 07:18:00,54.2,52.8,30.04,ESE,109,0.0,0.0,95,0.00,CLR,SKC,0.00,39.0,WeatherDisplay:10.37,2017-07-21 14:18:00,
2017-07-21 07:23:00,54.1,52.7,30.04,ESE,109,0.0,0.0,95,0.00,CLR,SKC,0.00,44.0,WeatherDisplay:10.37,2017-07-21 14:23:00,
2017-07-21 07:28:00,54.1,52.7,30.04,ESE,109,0.0,0.0,95,0.00,CLR,SKC,0.00,39.0,WeatherDisplay:10.37,2017-07-21 14:28:00,
2017-07-21 07:33:00,54.1,52.7,30.04,ESE,114,2.3,2.3,95,0.00,CLR,SKC,0.00,49.0,WeatherDisplay:10.37,2017-07-21 14:33:00,
2017-07-21 07:38:00,54.1,52.7,30.04,ESE,115,3.5,3.5,95,0.00,CLR,SKC,0.00,54.0,WeatherDisplay:10.37,2017-07-21 14:38:00,
2017-07-21 07:43:00,54.0,52.6,30.04,ESE,123,3.5,3.5,95,0.00,CLR,SKC,0.00,67.0,WeatherDisplay:10.37,2017-07-21 14:43:00,
2017-07-21 07:48:00,53.9,52.5,30.04,SE,126,0.0,0.0,95,0.00,CLR,SKC,0.00,98.0,WeatherDisplay:10.37,2017-07-21 14:48:00,
2017-07-21 07:53:00,54.0,52.9,30.04,SE,129,3.5,3.5,96,0.00,CLR,SKC,0.00,95.0,WeatherDisplay:10.37,2017-07-21 14:53:00,
2017-07-21 07:54:00,54.0,52.9,30.04,SE,129,2.3,2.3,96,0.00,CLR,SKC,0.00,91.0,WeatherDisplay:10.37,2017-07-21 14:54:00,
2017-07-21 07:59:00,53.9,52.5,30.05,SE,128,0.0,0.0,95,0.00,CLR,SKC,0.00,83.0,WeatherDisplay:10.37,2017-07-21 14:59:00,
2017-07-21 08:04:00,54.0,52.6,30.05,ESE,111,3.5,3.5,95,0.00,OVC,SKC,0.00,102.0,WeatherDisplay:10.37,2017-07-21 15:04:00,
2017-07-21 08:09:00,53.9,52.5,30.05,ESE,111,0.0,0.0,95,0.00,OVC,SKC,0.00,114.0,WeatherDisplay:10.37,2017-07-21 15:09:00,
2017-07-21 08:14:00,53.8,52.4,30.05,ESE,111,0.0,0.0,95,0.00,OVC,SKC,0.00,111.0,WeatherDisplay:10.37,2017-07-21 15:14:00,
2017-07-21 08:19:00,53.7,52.3,30.05,ESE,111,0.0,0.0,95,0.00,OVC,SKC,0.00,100.0,WeatherDisplay:10.37,2017-07-21 15:19:00,
2017-07-21 08:24:00,53.8,52.4,30.05,ESE,111,0.0,0.0,95,0.00,OVC,SKC,0.00,95.0,WeatherDisplay:10.37,2017-07-21 15:24:00,
2017-07-21 08:29:00,53.9,52.8,30.05,ESE,111,0.0,0.0,96,0.00,OVC,SKC,0.00,114.0,WeatherDisplay:10.37,2017-07-21 15:29:00,
2017-07-21 08:34:00,53.9,52.5,30.05,ESE,114,6.0,6.0,95,0.00,OVC,SKC,0.00,162.0,WeatherDisplay:10.37,2017-07-21 15:34:00,
2017-07-21 08:39:00,54.0,52.9,30.05,ENE,74,3.5,3.5,96,0.00,OVC,SKC,0.00,162.0,WeatherDisplay:10.37,2017-07-21 15:39:00,
2017-07-21 08:44:00,54.0,52.9,30.05,ESE,103,0.0,0.0,96,0.00,OVC,SKC,0.00,178.0,WeatherDisplay:10.37,2017-07-21 15:44:00,
2017-07-21 08:49:00,54.1,53.0,30.05,ESE,105,0.0,0.0,96,0.00,OVC,SKC,0.00,225.0,WeatherDisplay:10.37,2017-07-21 15:49:00,
2017-07-21 08:54:00,54.1,52.7,30.05,ESE,105,0.0,0.0,95,0.00,OVC,SKC,0.00,237.0,WeatherDisplay:10.37,2017-07-21 15:54:00,
2017-07-21 08:59:00,54.0,52.6,30.05,ESE,105,0.0,0.0,95,0.00,OVC,SKC,0.00,234.0,WeatherDisplay:10.37,2017-07-21 15:59:00,
2017-07-21 09:04:00,54.0,52.6,30.05,East,82,3.5,0.0,95,0.00,OVC,SKC,0.00,237.0,WeatherDisplay:10.37,2017-07-21 16:04:00,
2017-07-21 09:09:00,54.0,52.6,30.05,East,82,0.0,0.0,95,0.00,OVC,SKC,0.00,237.0,WeatherDisplay:10.37,2017-07-21 16:09:00,
2017-07-21 09:14:00,54.4,53.3,30.05,East,83,0.0,0.0,96,0.00,OVC,SKC,0.00,258.0,WeatherDisplay:10.37,2017-07-21 16:14:00,
2017-07-21 09:19:00,54.5,53.1,30.05,SE,132,0.0,1.2,95,0.00,OVC,SKC,0.00,262.0,WeatherDisplay:10.37,2017-07-21 16:19:00,
2017-07-21 09:24:00,54.6,53.2,30.05,SE,124,1.2,0.0,95,0.00,OVC,SKC,0.00,320.0,WeatherDisplay:10.37,2017-07-21 16:24:00,
2017-07-21 09:29:00,54.8,53.4,30.05,SE,134,2.3,0.0,95,0.00,OVC,SKC,0.00,397.0,WeatherDisplay:10.37,2017-07-21 16:29:00,
2017-07-21 09:34:00,55.1,53.7,30.05,SE,137,1.0,1.0,95,0.00,OVC,SKC,0.00,338.0,WeatherDisplay:10.37,2017-07-21 16:34:00,
2017-07-21 09:39:00,55.5,54.1,30.05,SSE,150,4.6,4.6,95,0.00,OVC,SKC,0.00,457.0,WeatherDisplay:10.37,2017-07-21 16:39:00,
2017-07-21 09:44:00,55.7,54.0,30.05,SSE,151,1.2,1.2,94,0.00,OVC,SKC,0.00,478.0,WeatherDisplay:10.37,2017-07-21 16:44:00,
2017-07-21 09:49:00,55.9,54.2,30.05,SSE,154,0.0,5.0,94,0.00,OVC,SKC,0.00,664.0,WeatherDisplay:10.37,2017-07-21 16:49:00,
2017-07-21 09:54:00,56.2,54.2,30.04,SSE,154,0.0,0.0,93,0.00,OVC,SKC,0.00,496.0,WeatherDisplay:10.37,2017-07-21 16:54:00,
2017-07-21 09:59:00,56.7,54.7,30.04,South,178,3.5,3.5,93,0.00,OVC,SKC,0.00,519.0,WeatherDisplay:10.37,2017-07-21 16:59:00,
2017-07-21 10:04:00,57.0,54.7,30.05,SSE,157,1.0,6.0,92,0.00,OVC,SKC,0.00,570.0,WeatherDisplay:10.37,2017-07-21 17:04:00,
2017-07-21 10:09:00,57.1,54.5,30.04,SSE,148,4.6,4.6,91,0.00,OVC,SKC,0.00,424.0,WeatherDisplay:10.37,2017-07-21 17:09:00,
2017-07-21 10:14:00,57.6,55.3,30.04,SE,131,7.0,7.0,92,0.00,OVC,SKC,0.00,512.0,WeatherDisplay:10.37,2017-07-21 17:14:00,
2017-07-21 10:19:00,57.6,54.7,30.04,SSE,154,1.0,7.0,90,0.00,OVC,SKC,0.00,606.0,WeatherDisplay:10.37,2017-07-21 17:19:00,
2017-07-21 10:24:00,57.6,54.7,30.04,South,171,6.9,6.9,90,0.00,OVC,SKC,0.00,882.0,WeatherDisplay:10.37,2017-07-21 17:24:00,
2017-07-21 10:29:00,57.7,54.8,30.04,SSE,166,1.0,7.0,90,0.00,OVC,SKC,0.00,490.0,WeatherDisplay:10.37,2017-07-21 17:29:00,
2017-07-21 10:34:00,57.9,54.7,30.04,SSE,166,1.0,8.0,89,0.00,OVC,SKC,0.00,515.0,WeatherDisplay:10.37,2017-07-21 17:34:00,
2017-07-21 10:39:00,57.6,54.4,30.04,SSE,165,3.0,7.0,89,0.00,OVC,SKC,0.00,585.0,WeatherDisplay:10.37,2017-07-21 17:39:00,
2017-07-21 10:44:00,57.5,54.3,30.04,South,173,2.0,9.0,89,0.00,OVC,SKC,0.00,519.0,WeatherDisplay:10.37,2017-07-21 17:44:00,
2017-07-21 10:49:00,57.6,55.3,30.05,SSW,200,5.0,5.0,92,0.00,OVC,SKC,0.00,570.0,WeatherDisplay:10.37,2017-07-21 17:49:00,
2017-07-21 10:54:00,57.3,54.1,30.05,South,173,8.1,8.1,89,0.00,OVC,SKC,0.00,406.0,WeatherDisplay:10.37,2017-07-21 17:54:00,
2017-07-21 10:59:00,57.3,54.1,30.04,South,173,9.2,9.2,89,0.00,OVC,SKC,0.00,610.0,WeatherDisplay:10.37,2017-07-21 17:59:00,
2017-07-21 11:04:00,56.9,54.0,30.04,SSW,202,4.6,4.6,90,0.00,OVC,SKC,0.00,584.0,WeatherDisplay:10.37,2017-07-21 18:04:00,
2017-07-21 11:09:00,56.6,53.7,30.04,South,169,5.8,5.8,90,0.00,OVC,SKC,0.00,596.0,WeatherDisplay:10.37,2017-07-21 18:09:00,
2017-07-21 11:14:00,56.7,53.8,30.04,SSE,147,4.6,4.6,90,0.00,OVC,SKC,0.00,671.0,WeatherDisplay:10.37,2017-07-21 18:14:00,
2017-07-21 11:19:00,57.1,54.5,30.05,SSE,148,5.8,5.8,91,0.00,OVC,SKC,0.00,670.0,WeatherDisplay:10.37,2017-07-21 18:19:00,
2017-07-21 11:24:00,57.7,54.8,30.05,South,185,1.2,1.2,90,0.00,OVC,SKC,0.00,729.0,WeatherDisplay:10.37,2017-07-21 18:24:00,
2017-07-21 11:29:00,58.1,55.2,30.04,South,187,3.5,3.5,90,0.00,OVC,SKC,0.00,916.0,WeatherDisplay:10.37,2017-07-21 18:29:00,
2017-07-21 11:34:00,58.2,55.0,30.04,SSE,153,5.8,5.8,89,0.00,OVC,SKC,0.00,886.0,WeatherDisplay:10.37,2017-07-21 18:34:00,
2017-07-21 11:39:00,58.2,55.0,30.04,SSE,158,3.5,3.5,89,0.00,OVC,SKC,0.00,621.0,WeatherDisplay:10.37,2017-07-21 18:39:00,
2017-07-21 11:44:00,58.4,54.9,30.04,South,169,4.6,4.6,88,0.00,OVC,SKC,0.00,933.0,WeatherDisplay:10.37,2017-07-21 18:44:00,
2017-07-21 11:49:00,58.7,55.2,30.04,SSE,153,5.0,5.0,88,0.00,OVC,SKC,0.00,932.0,WeatherDisplay:10.37,2017-07-21 18:49:00,
2017-07-21 11:54:00,58.7,55.2,30.04,SSE,164,3.5,3.5,88,0.00,OVC,SKC,0.00,932.0,WeatherDisplay:10.37,2017-07-21 18:54:00,
2017-07-21 11:59:00,58.9,55.0,30.04,SE,146,4.6,0.0,87,0.00,OVC,SKC,0.00,942.0,WeatherDisplay:10.37,2017-07-21 18:59:00,
2017-07-21 12:04:00,58.9,55.4,30.04,SE,128,2.3,0.0,88,0.00,OVC,SKC,0.00,933.0,WeatherDisplay:10.37,2017-07-21 19:04:00,
2017-07-21 12:09:00,59.2,55.3,30.04,SE,128,4.6,4.6,87,0.00,OVC,SKC,0.00,889.0,WeatherDisplay:10.37,2017-07-21 19:09:00,
2017-07-21 12:14:00,59.0,54.8,30.04,SSE,163,4.6,4.6,86,0.00,OVC,SKC,0.00,935.0,WeatherDisplay:10.37,2017-07-21 19:14:00,
2017-07-21 12:19:00,58.9,55.1,30.04,SSE,153,0.0,5.0,87,0.00,OVC,SKC,0.00,918.0,WeatherDisplay:10.37,2017-07-21 19:19:00,
2017-07-21 12:24:00,59.1,55.3,30.04,SE,139,0.0,2.0,87,0.00,OVC,SKC,0.00,912.0,WeatherDisplay:10.37,2017-07-21 19:24:00,
2017-07-21 12:29:00,59.3,55.4,30.04,SE,134,2.3,0.0,87,0.00,OVC,SKC,0.00,923.0,WeatherDisplay:10.37,2017-07-21 19:29:00,
2017-07-21 12:34:00,59.7,55.2,30.04,SSE,147,3.5,0.0,85,0.00,OVC,SKC,0.00,930.0,WeatherDisplay:10.37,2017-07-21 19:34:00,
2017-07-21 12:39:00,59.5,55.3,30.03,SSE,148,2.0,2.0,86,0.00,OVC,SKC,0.00,932.0,WeatherDisplay:10.37,2017-07-21 19:39:00,
2017-07-21 12:44:00,59.3,55.1,30.03,SE,146,3.0,7.0,86,0.00,OVC,SKC,0.00,928.0,WeatherDisplay:10.37,2017-07-21 19:44:00,
2017-07-21 12:49:00,59.3,55.1,30.03,SSW,197,4.6,4.6,86,0.00,OVC,SKC,0.00,933.0,WeatherDisplay:10.37,2017-07-21 19:49:00,
2017-07-21 12:54:00,59.2,54.7,30.03,SE,139,3.5,3.5,85,0.00,OVC,SKC,0.00,939.0,WeatherDisplay:10.37,2017-07-21 19:54:00,
2017-07-21 12:59:00,59.1,54.9,30.02,South,186,3.5,3.5,86,0.00,OVC,SKC,0.00,939.0,WeatherDisplay:10.37,2017-07-21 19:59:00,
2017-07-21 13:04:00,59.6,55.7,30.02,South,172,0.0,0.4,87,0.00,OVC,SKC,0.00,944.0,WeatherDisplay:10.37,2017-07-21 20:04:00,
2017-07-21 13:09:00,60.0,55.8,30.02,SE,138,1.2,1.2,86,0.00,OVC,SKC,0.00,944.0,WeatherDisplay:10.37,2017-07-21 20:09:00,
2017-07-21 13:14:00,60.1,55.6,30.02,SE,146,0.0,0.3,85,0.00,OVC,SKC,0.00,942.0,WeatherDisplay:10.37,2017-07-21 20:14:00,
2017-07-21 13:19:00,60.3,55.8,30.02,South,171,3.5,0.0,85,0.00,OVC,SKC,0.00,946.0,WeatherDisplay:10.37,2017-07-21 20:19:00,
2017-07-21 13:20:00,60.3,55.8,30.02,SSW,194,1.2,0.0,85,0.00,OVC,SKC,0.00,946.0,WeatherDisplay:10.37,2017-07-21 20:20:00,
2017-07-21 13:25:00,60.5,55.6,30.02,SSE,158,3.5,3.5,84,0.00,OVC,SKC,0.00,944.0,WeatherDisplay:10.37,2017-07-21 20:25:00,
2017-07-21 13:30:00,60.2,55.3,30.02,SSE,154,0.0,0.0,84,0.00,OVC,SKC,0.00,940.0,WeatherDisplay:10.37,2017-07-21 20:30:00,
2017-07-21 13:35:00,60.4,55.9,30.01,SSE,156,3.5,3.5,85,0.00,OVC,SKC,0.00,946.0,WeatherDisplay:10.37,2017-07-21 20:35:00,
2017-07-21 13:40:00,60.6,56.4,30.01,SE,128,2.3,2.3,86,0.00,OVC,SKC,0.00,939.0,WeatherDisplay:10.37,2017-07-21 20:40:00,
2017-07-21 13:45:00,60.7,55.8,30.01,SSE,157,5.8,5.8,84,0.00,OVC,SKC,0.00,937.0,WeatherDisplay:10.37,2017-07-21 20:45:00,
2017-07-21 13:50:00,61.1,56.6,30.01,South,184,1.2,1.2,85,0.00,OVC,SKC,0.00,937.0,WeatherDisplay:10.37,2017-07-21 20:50:00,
2017-07-21 13:55:00,61.6,56.7,30.01,SSE,163,3.5,3.5,84,0.00,OVC,SKC,0.00,933.0,WeatherDisplay:10.37,2017-07-21 20:55:00,
2017-07-21 14:00:00,61.2,56.0,30.01,SE,136,5.0,5.0,83,0.00,OVC,SKC,0.00,930.0,WeatherDisplay:10.37,2017-07-21 21:00:00,
2017-07-21 14:05:00,60.8,56.3,30.01,ESE,121,4.6,4.6,85,0.00,OVC,SKC,0.00,928.0,WeatherDisplay:10.37,2017-07-21 21:05:00,
2017-07-21 14:10:00,61.0,56.5,30.01,ESE,112,4.6,4.6,85,0.00,BKN,SKC,0.00,921.0,WeatherDisplay:10.37,2017-07-21 21:10:00,
2017-07-21 14:15:00,61.2,57.0,30.00,ESE,104,4.6,4.6,86,0.00,FEW,SKC,0.00,918.0,WeatherDisplay:10.37,2017-07-21 21:15:00,
2017-07-21 14:20:00,61.1,56.6,30.00,East,101,6.9,6.9,85,0.00,CLR,SKC,0.00,909.0,WeatherDisplay:10.37,2017-07-21 21:20:00,
2017-07-21 14:25:00,61.2,57.0,30.00,SE,128,5.0,5.0,86,0.00,CLR,SKC,0.00,902.0,WeatherDisplay:10.37,2017-07-21 21:25:00,
2017-07-21 14:30:00,61.1,56.9,30.00,ESE,119,5.8,5.8,86,0.00,CLR,SKC,0.00,895.0,WeatherDisplay:10.37,2017-07-21 21:30:00,
2017-07-21 14:35:00,61.1,56.9,30.00,SE,128,7.0,7.0,86,0.00,CLR,SKC,0.00,893.0,WeatherDisplay:10.37,2017-07-21 21:35:00,
2017-07-21 14:40:00,61.1,56.9,30.00,SE,125,9.2,9.2,86,0.00,CLR,SKC,0.00,884.0,WeatherDisplay:10.37,2017-07-21 21:40:00,
2017-07-21 14:45:00,60.8,56.9,29.99,SE,143,7.0,7.0,87,0.00,CLR,SKC,0.00,877.0,WeatherDisplay:10.37,2017-07-21 21:45:00,
2017-07-21 14:50:00,61.0,56.8,29.99,ESE,111,5.8,5.8,86,0.00,CLR,SKC,0.00,868.0,WeatherDisplay:10.37,2017-07-21 21:50:00,
2017-07-21 14:55:00,61.1,56.9,29.99,ESE,113,4.6,4.6,86,0.00,CLR,SKC,0.00,863.0,WeatherDisplay:10.37,2017-07-21 21:55:00,
2017-07-21 15:00:00,61.7,57.8,29.99,East,101,4.0,4.0,87,0.00,CLR,SKC,0.00,856.0,WeatherDisplay:10.37,2017-07-21 22:00:00,
2017-07-21 15:01:00,61.8,57.9,29.99,East,96,4.0,4.0,87,0.00,CLR,SKC,0.00,856.0,WeatherDisplay:10.37,2017-07-21 22:01:00,
2017-07-21 15:06:00,61.8,57.2,29.99,ESE,117,5.8,5.8,85,0.00,CLR,SKC,0.00,847.0,WeatherDisplay:10.37,2017-07-21 22:06:00,
2017-07-21 15:11:00,61.8,57.6,29.99,SE,128,4.6,4.6,86,0.00,CLR,SKC,0.00,840.0,WeatherDisplay:10.37,2017-07-21 22:11:00,
2017-07-21 15:16:00,62.6,58.4,29.99,ESE,119,4.0,4.0,86,0.00,CLR,SKC,0.00,831.0,WeatherDisplay:10.37,2017-07-21 22:16:00,
2017-07-21 15:21:00,62.8,58.2,29.99,ESE,118,5.0,5.0,85,0.00,CLR,SKC,0.00,821.0,WeatherDisplay:10.37,2017-07-21 22:21:00,
2017-07-21 15:26:00,63.3,58.7,29.99,ESE,107,6.9,6.9,85,0.00,CLR,SKC,0.00,812.0,WeatherDisplay:10.37,2017-07-21 22:26:00,
2017-07-21 15:31:00,63.4,58.5,29.99,East,91,3.5,3.5,84,0.00,CLR,SKC,0.00,802.0,WeatherDisplay:10.37,2017-07-21 22:31:00,
2017-07-21 15:36:00,64.1,59.2,29.99,ESE,111,3.5,0.0,84,0.00,CLR,SKC,0.00,798.0,WeatherDisplay:10.37,2017-07-21 22:36:00,
2017-07-21 15:41:00,64.4,59.1,29.98,ESE,109,3.5,3.5,83,0.00,CLR,SKC,0.00,780.0,WeatherDisplay:10.37,2017-07-21 22:41:00,
2017-07-21 15:46:00,64.4,58.8,29.98,ESE,105,5.0,5.0,82,0.00,CLR,SKC,0.00,770.0,WeatherDisplay:10.37,2017-07-21 22:46:00,
2017-07-21 15:51:00,64.6,59.3,29.98,ENE,65,4.6,4.6,83,0.00,CLR,SKC,0.00,761.0,WeatherDisplay:10.37,2017-07-21 22:51:00,
2017-07-21 15:56:00,65.0,59.4,29.98,SE,132,4.6,4.6,82,0.00,CLR,SKC,0.00,747.0,WeatherDisplay:10.37,2017-07-21 22:56:00,
2017-07-21 16:01:00,65.3,59.0,29.98,East,101,5.0,5.0,80,0.00,CLR,SKC,0.00,738.0,WeatherDisplay:10.37,2017-07-21 23:01:00,
2017-07-21 16:06:00,64.8,58.8,29.98,East,84,5.8,5.8,81,0.00,CLR,SKC,0.00,726.0,WeatherDisplay:10.37,2017-07-21 23:06:00,
2017-07-21 16:11:00,64.6,59.0,29.98,ESE,104,6.9,6.9,82,0.00,CLR,SKC,0.00,710.0,WeatherDisplay:10.37,2017-07-21 23:11:00,